sensor_id;sensor_type;location;lat;lon;timestamp;pressure;altitude;pressure_sealevel;temperature;humidity
18275;BME280;19470;49.322;7.218;2023-03-05T00:01:12;99107.22;;;9.71;74.37
18275;BME280;19470;49.322;7.218;2023-03-05T00:03:39;99106.91;;;9.50;76.26
18275;BME280;19470;49.322;7.218;2023-03-05T00:06:06;99106.34;;;9.47;75.63
18275;BME280;19470;49.322;7.218;2023-03-05T00:08:33;99108.41;;;9.76;74.62
18275;BME280;19470;49.322;7.218;2023-03-05T00:11:01;99107.84;;;9.25;77.11
18275;BME280;19470;49.322;7.218;2023-03-05T00:13:28;99102.47;;;8.58;81.45
18275;BME280;19470;49.322;7.218;2023-03-05T00:15:55;99100.25;;;9.47;76.49
18275;BME280;19470;49.322;7.218;2023-03-05T00:18:23;99097.03;;;9.27;76.72
18275;BME280;19470;49.322;7.218;2023-03-05T00:20:50;99100.53;;;8.90;79.23
18275;BME280;19470;49.322;7.218;2023-03-05T00:23:16;99101.59;;;9.19;77.82
18275;BME280;19470;49.322;7.218;2023-03-05T00:25:43;99094.06;;;9.53;75.39
18275;BME280;19470;49.322;7.218;2023-03-05T00:28:11;99095.50;;;9.37;75.98
18275;BME280;19470;49.322;7.218;2023-03-05T00:30:52;99093.84;;;8.88;80.47
18275;BME280;19470;49.322;7.218;2023-03-05T00:33:19;99092.28;;;8.99;80.14
18275;BME280;19470;49.322;7.218;2023-03-05T00:35:47;99088.22;;;9.63;76.93
18275;BME280;19470;49.322;7.218;2023-03-05T00:38:13;99085.03;;;9.72;75.72
18275;BME280;19470;49.322;7.218;2023-03-05T00:40:40;99078.75;;;9.85;75.21
18275;BME280;19470;49.322;7.218;2023-03-05T00:43:07;99081.78;;;10.12;73.01
18275;BME280;19470;49.322;7.218;2023-03-05T00:45:34;99077.63;;;9.51;74.10
18275;BME280;19470;49.322;7.218;2023-03-05T00:48:02;99076.16;;;9.67;73.46
18275;BME280;19470;49.322;7.218;2023-03-05T00:50:29;99075.06;;;8.78;76.40
18275;BME280;19470;49.322;7.218;2023-03-05T00:52:57;99074.03;;;8.97;77.07
18275;BME280;19470;49.322;7.218;2023-03-05T00:55:23;99070.38;;;8.61;78.70
18275;BME280;19470;49.322;7.218;2023-03-05T00:57:50;99073.16;;;8.85;77.32
18275;BME280;19470;49.322;7.218;2023-03-05T01:00:17;99065.38;;;9.08;76.10
18275;BME280;19470;49.322;7.218;2023-03-05T01:02:43;99053.53;;;9.41;75.69
18275;BME280;19470;49.322;7.218;2023-03-05T01:05:11;99055.50;;;9.76;73.81
18275;BME280;19470;49.322;7.218;2023-03-05T01:07:38;99050.34;;;9.81;73.48
18275;BME280;19470;49.322;7.218;2023-03-05T01:10:07;99051.69;;;9.71;74.50
18275;BME280;19470;49.322;7.218;2023-03-05T01:12:34;99047.63;;;9.57;74.74
18275;BME280;19470;49.322;7.218;2023-03-05T01:15:01;99053.28;;;9.72;74.06
18275;BME280;19470;49.322;7.218;2023-03-05T01:17:27;99050.22;;;9.45;75.10
18275;BME280;19470;49.322;7.218;2023-03-05T01:19:54;99052.91;;;8.79;79.81
18275;BME280;19470;49.322;7.218;2023-03-05T01:22:20;99047.75;;;8.84;78.75
18275;BME280;19470;49.322;7.218;2023-03-05T01:24:47;99050.91;;;8.74;80.46
18275;BME280;19470;49.322;7.218;2023-03-05T01:27:14;99051.00;;;8.86;78.95
18275;BME280;19470;49.322;7.218;2023-03-05T01:29:41;99049.91;;;8.57;79.37
18275;BME280;19470;49.322;7.218;2023-03-05T01:32:07;99047.94;;;8.02;82.07
18275;BME280;19470;49.322;7.218;2023-03-05T01:34:35;99047.22;;;8.13;81.96
18275;BME280;19470;49.322;7.218;2023-03-05T01:37:01;99050.56;;;8.52;80.40
18275;BME280;19470;49.322;7.218;2023-03-05T01:39:28;99046.38;;;8.81;78.69
18275;BME280;19470;49.322;7.218;2023-03-05T01:41:54;99040.06;;;8.82;78.86
18275;BME280;19470;49.322;7.218;2023-03-05T01:44:24;99040.44;;;8.67;79.68
18275;BME280;19470;49.322;7.218;2023-03-05T01:46:51;99038.09;;;8.78;79.59
18275;BME280;19470;49.322;7.218;2023-03-05T01:49:20;99036.84;;;8.80;79.28
18275;BME280;19470;49.322;7.218;2023-03-05T01:51:52;99028.84;;;8.68;79.78
18275;BME280;19470;49.322;7.218;2023-03-05T01:54:24;99036.50;;;8.33;80.82
18275;BME280;19470;49.322;7.218;2023-03-05T01:56:53;99031.19;;;8.77;79.32
18275;BME280;19470;49.322;7.218;2023-03-05T01:59:24;99025.50;;;8.61;79.77
18275;BME280;19470;49.322;7.218;2023-03-05T02:01:54;99019.59;;;8.41;81.01
18275;BME280;19470;49.322;7.218;2023-03-05T02:04:23;99011.03;;;9.12;77.58
18275;BME280;19470;49.322;7.218;2023-03-05T02:06:52;99009.22;;;9.13;77.63
18275;BME280;19470;49.322;7.218;2023-03-05T02:09:19;99007.28;;;8.72;79.74
18275;BME280;19470;49.322;7.218;2023-03-05T02:11:47;99003.19;;;8.76;80.04
18275;BME280;19470;49.322;7.218;2023-03-05T02:14:14;98996.53;;;9.45;76.97
18275;BME280;19470;49.322;7.218;2023-03-05T02:16:42;99000.59;;;9.59;75.46
18275;BME280;19470;49.322;7.218;2023-03-05T02:19:10;98996.38;;;8.68;80.32
18275;BME280;19470;49.322;7.218;2023-03-05T02:21:40;98986.19;;;9.32;77.70
18275;BME280;19470;49.322;7.218;2023-03-05T02:24:10;98996.75;;;9.32;77.63
18275;BME280;19470;49.322;7.218;2023-03-05T02:26:37;98987.81;;;9.44;77.73
18275;BME280;19470;49.322;7.218;2023-03-05T02:29:06;98983.94;;;8.87;79.95
18275;BME280;19470;49.322;7.218;2023-03-05T02:31:34;98980.91;;;9.32;77.68
18275;BME280;19470;49.322;7.218;2023-03-05T02:34:00;98978.31;;;9.55;77.12
18275;BME280;19470;49.322;7.218;2023-03-05T02:36:27;98973.78;;;9.44;77.24
18275;BME280;19470;49.322;7.218;2023-03-05T02:38:55;98974.00;;;9.31;78.29
18275;BME280;19470;49.322;7.218;2023-03-05T02:41:23;98979.28;;;9.01;79.24
18275;BME280;19470;49.322;7.218;2023-03-05T02:43:50;98969.38;;;8.66;82.01
18275;BME280;19470;49.322;7.218;2023-03-05T02:46:16;98977.31;;;8.66;81.93
18275;BME280;19470;49.322;7.218;2023-03-05T02:48:43;98973.63;;;8.67;81.04
18275;BME280;19470;49.322;7.218;2023-03-05T02:51:10;98968.78;;;8.64;80.14
18275;BME280;19470;49.322;7.218;2023-03-05T02:53:36;98968.19;;;9.10;77.86
18275;BME280;19470;49.322;7.218;2023-03-05T02:56:05;98972.38;;;9.30;77.06
18275;BME280;19470;49.322;7.218;2023-03-05T02:58:31;98962.34;;;9.08;78.72
18275;BME280;19470;49.322;7.218;2023-03-05T03:00:58;98964.88;;;8.85;80.05
18275;BME280;19470;49.322;7.218;2023-03-05T03:03:24;98962.75;;;8.20;82.37
18275;BME280;19470;49.322;7.218;2023-03-05T03:05:50;98957.28;;;8.40;81.32
18275;BME280;19470;49.322;7.218;2023-03-05T03:08:17;98958.16;;;8.70;80.11
18275;BME280;19470;49.322;7.218;2023-03-05T03:10:44;98957.56;;;8.50;80.97
18275;BME280;19470;49.322;7.218;2023-03-05T03:13:12;98958.00;;;8.29;82.31
18275;BME280;19470;49.322;7.218;2023-03-05T03:15:38;98953.84;;;8.88;79.87
18275;BME280;19470;49.322;7.218;2023-03-05T03:18:05;98951.25;;;9.30;77.09
18275;BME280;19470;49.322;7.218;2023-03-05T03:20:32;98946.56;;;9.43;77.22
18275;BME280;19470;49.322;7.218;2023-03-05T03:22:59;98941.59;;;9.24;79.17
18275;BME280;19470;49.322;7.218;2023-03-05T03:25:26;98945.81;;;8.83;81.77
18275;BME280;19470;49.322;7.218;2023-03-05T03:27:52;98936.53;;;8.92;81.63
18275;BME280;19470;49.322;7.218;2023-03-05T03:30:20;98930.53;;;9.27;79.37
18275;BME280;19470;49.322;7.218;2023-03-05T03:32:47;98930.63;;;9.08;79.23
18275;BME280;19470;49.322;7.218;2023-03-05T03:35:13;98926.16;;;9.09;79.97
18275;BME280;19470;49.322;7.218;2023-03-05T03:37:40;98931.75;;;7.97;85.93
18275;BME280;19470;49.322;7.218;2023-03-05T03:40:08;98926.97;;;8.61;80.46
18275;BME280;19470;49.322;7.218;2023-03-05T03:42:34;98918.56;;;8.15;83.61
18275;BME280;19470;49.322;7.218;2023-03-05T03:45:01;98921.28;;;7.90;84.92
18275;BME280;19470;49.322;7.218;2023-03-05T03:47:29;98917.88;;;7.83;85.58
18275;BME280;19470;49.322;7.218;2023-03-05T03:49:56;98916.28;;;8.01;84.56
18275;BME280;19470;49.322;7.218;2023-03-05T03:52:23;98911.84;;;7.76;85.84
18275;BME280;19470;49.322;7.218;2023-03-05T03:54:50;98914.81;;;7.86;84.39
18275;BME280;19470;49.322;7.218;2023-03-05T03:57:17;98915.97;;;7.72;84.87
18275;BME280;19470;49.322;7.218;2023-03-05T03:59:44;98911.31;;;7.92;84.50
18275;BME280;19470;49.322;7.218;2023-03-05T04:02:11;98918.38;;;7.74;85.46
18275;BME280;19470;49.322;7.218;2023-03-05T04:04:39;98913.91;;;7.74;85.53
18275;BME280;19470;49.322;7.218;2023-03-05T04:07:05;98912.53;;;7.90;84.95
18275;BME280;19470;49.322;7.218;2023-03-05T04:09:32;98916.44;;;7.87;87.05
18275;BME280;19470;49.322;7.218;2023-03-05T04:11:58;98913.34;;;7.72;87.67
18275;BME280;19470;49.322;7.218;2023-03-05T04:14:24;98907.41;;;7.52;88.38
18275;BME280;19470;49.322;7.218;2023-03-05T04:16:51;98909.16;;;7.39;88.88
18275;BME280;19470;49.322;7.218;2023-03-05T04:19:18;98917.50;;;7.80;85.19
18275;BME280;19470;49.322;7.218;2023-03-05T04:21:46;98916.16;;;7.71;85.17
18275;BME280;19470;49.322;7.218;2023-03-05T04:24:12;98915.66;;;7.80;85.46
18275;BME280;19470;49.322;7.218;2023-03-05T04:26:39;98905.44;;;8.09;84.22
18275;BME280;19470;49.322;7.218;2023-03-05T04:29:05;98907.34;;;8.20;84.10
18275;BME280;19470;49.322;7.218;2023-03-05T04:31:32;98909.72;;;7.66;86.69
18275;BME280;19470;49.322;7.218;2023-03-05T04:33:58;98898.66;;;7.33;88.88
18275;BME280;19470;49.322;7.218;2023-03-05T04:36:25;98904.28;;;7.86;85.69
18275;BME280;19470;49.322;7.218;2023-03-05T04:38:53;98902.31;;;7.32;88.59
18275;BME280;19470;49.322;7.218;2023-03-05T04:41:19;98899.16;;;7.91;84.67
18275;BME280;19470;49.322;7.218;2023-03-05T04:43:46;98905.50;;;7.40;87.06
18275;BME280;19470;49.322;7.218;2023-03-05T04:46:12;98895.25;;;8.12;83.97
18275;BME280;19470;49.322;7.218;2023-03-05T04:48:39;98899.16;;;7.66;86.47
18275;BME280;19470;49.322;7.218;2023-03-05T04:51:05;98899.16;;;7.66;87.28
18275;BME280;19470;49.322;7.218;2023-03-05T04:53:32;98897.13;;;6.94;90.92
18275;BME280;19470;49.322;7.218;2023-03-05T04:56:00;98890.16;;;7.31;89.57
18275;BME280;19470;49.322;7.218;2023-03-05T04:58:27;98901.28;;;7.08;90.07
18275;BME280;19470;49.322;7.218;2023-03-05T05:00:54;98904.22;;;6.93;91.42
18275;BME280;19470;49.322;7.218;2023-03-05T05:03:25;98891.91;;;7.62;88.36
18275;BME280;19470;49.322;7.218;2023-03-05T05:05:53;98895.13;;;8.07;84.75
18275;BME280;19470;49.322;7.218;2023-03-05T05:08:20;98899.97;;;7.49;87.42
18275;BME280;19470;49.322;7.218;2023-03-05T05:10:54;98894.25;;;7.27;89.46
18275;BME280;19470;49.322;7.218;2023-03-05T05:13:22;98892.97;;;7.79;86.79
18275;BME280;19470;49.322;7.218;2023-03-05T05:15:49;98894.34;;;7.63;87.79
18275;BME280;19470;49.322;7.218;2023-03-05T05:18:15;98886.63;;;7.62;87.71
18275;BME280;19470;49.322;7.218;2023-03-05T05:20:41;98877.47;;;7.46;88.75
18275;BME280;19470;49.322;7.218;2023-03-05T05:23:08;98883.91;;;7.50;88.71
18275;BME280;19470;49.322;7.218;2023-03-05T05:25:34;98886.41;;;7.45;89.46
18275;BME280;19470;49.322;7.218;2023-03-05T05:28:01;98885.22;;;7.41;89.17
18275;BME280;19470;49.322;7.218;2023-03-05T05:30:29;98887.59;;;7.49;88.64
18275;BME280;19470;49.322;7.218;2023-03-05T05:32:56;98880.44;;;7.31;89.24
18275;BME280;19470;49.322;7.218;2023-03-05T05:35:23;98884.94;;;7.24;90.18
18275;BME280;19470;49.322;7.218;2023-03-05T05:37:49;98878.28;;;7.47;89.34
18275;BME280;19470;49.322;7.218;2023-03-05T05:40:16;98881.66;;;7.29;91.05
18275;BME280;19470;49.322;7.218;2023-03-05T05:42:42;98884.22;;;7.10;92.22
18275;BME280;19470;49.322;7.218;2023-03-05T05:45:10;98882.34;;;7.17;91.97
18275;BME280;19470;49.322;7.218;2023-03-05T05:47:38;98877.16;;;7.36;90.88
18275;BME280;19470;49.322;7.218;2023-03-05T05:50:05;98885.63;;;6.81;92.77
18275;BME280;19470;49.322;7.218;2023-03-05T05:52:32;98874.09;;;6.44;95.71
18275;BME280;19470;49.322;7.218;2023-03-05T05:54:58;98879.41;;;6.76;95.41
18275;BME280;19470;49.322;7.218;2023-03-05T05:57:25;98876.13;;;7.12;92.42
18275;BME280;19470;49.322;7.218;2023-03-05T05:59:51;98876.78;;;7.32;90.16
18275;BME280;19470;49.322;7.218;2023-03-05T06:02:18;98865.91;;;7.22;91.30
18275;BME280;19470;49.322;7.218;2023-03-05T06:04:46;98875.31;;;7.11;91.17
18275;BME280;19470;49.322;7.218;2023-03-05T06:07:12;98869.34;;;7.48;90.10
18275;BME280;19470;49.322;7.218;2023-03-05T06:09:39;98869.28;;;7.04;90.74
18275;BME280;19470;49.322;7.218;2023-03-05T06:12:06;98866.31;;;7.26;91.51
18275;BME280;19470;49.322;7.218;2023-03-05T06:14:33;98867.63;;;7.35;90.71
18275;BME280;19470;49.322;7.218;2023-03-05T06:16:59;98868.56;;;7.65;89.20
18275;BME280;19470;49.322;7.218;2023-03-05T06:19:26;98865.94;;;7.65;87.46
18275;BME280;19470;49.322;7.218;2023-03-05T06:21:53;98870.13;;;7.30;90.45
18275;BME280;19470;49.322;7.218;2023-03-05T06:24:20;98875.56;;;7.03;92.48
18275;BME280;19470;49.322;7.218;2023-03-05T06:26:47;98867.34;;;7.43;90.76
18275;BME280;19470;49.322;7.218;2023-03-05T06:29:14;98866.34;;;7.44;89.96
18275;BME280;19470;49.322;7.218;2023-03-05T06:31:40;98866.72;;;8.09;87.10
18275;BME280;19470;49.322;7.218;2023-03-05T06:34:07;98861.50;;;8.39;85.22
18275;BME280;19470;49.322;7.218;2023-03-05T06:36:33;98865.38;;;7.82;86.42
18275;BME280;19470;49.322;7.218;2023-03-05T06:39:01;98865.50;;;7.68;88.12
18275;BME280;19470;49.322;7.218;2023-03-05T06:41:31;98863.91;;;7.67;88.65
18275;BME280;19470;49.322;7.218;2023-03-05T06:43:59;98867.91;;;7.70;88.99
18275;BME280;19470;49.322;7.218;2023-03-05T06:46:27;98859.97;;;7.52;90.49
18275;BME280;19470;49.322;7.218;2023-03-05T06:48:55;98858.28;;;7.57;89.46
18275;BME280;19470;49.322;7.218;2023-03-05T06:51:23;98862.44;;;7.72;90.32
18275;BME280;19470;49.322;7.218;2023-03-05T06:53:51;98857.75;;;8.29;86.71
18275;BME280;19470;49.322;7.218;2023-03-05T06:56:19;98851.94;;;8.68;84.23
18275;BME280;19470;49.322;7.218;2023-03-05T06:58:48;98853.78;;;8.68;84.10
18275;BME280;19470;49.322;7.218;2023-03-05T07:01:15;98858.69;;;8.94;81.68
18275;BME280;19470;49.322;7.218;2023-03-05T07:03:42;98852.81;;;8.32;85.66
18275;BME280;19470;49.322;7.218;2023-03-05T07:06:11;98848.94;;;8.95;82.83
18275;BME280;19470;49.322;7.218;2023-03-05T07:08:38;98853.78;;;9.21;81.01
18275;BME280;19470;49.322;7.218;2023-03-05T07:11:08;98841.53;;;8.74;84.61
18275;BME280;19470;49.322;7.218;2023-03-05T07:13:36;98840.44;;;8.33;86.29
18275;BME280;19470;49.322;7.218;2023-03-05T07:16:04;98841.13;;;7.73;90.19
18275;BME280;19470;49.322;7.218;2023-03-05T07:18:31;98852.22;;;7.57;90.25
18275;BME280;19470;49.322;7.218;2023-03-05T07:21:00;98844.41;;;7.68;94.65
18275;BME280;19470;49.322;7.218;2023-03-05T07:23:27;98843.25;;;8.19;87.88
18275;BME280;19470;49.322;7.218;2023-03-05T07:25:53;98838.50;;;8.10;89.88
18275;BME280;19470;49.322;7.218;2023-03-05T07:28:20;98841.41;;;7.65;89.01
18275;BME280;19470;49.322;7.218;2023-03-05T07:30:55;98845.56;;;7.54;89.29
18275;BME280;19470;49.322;7.218;2023-03-05T07:33:21;98839.00;;;8.79;84.82
18275;BME280;19470;49.322;7.218;2023-03-05T07:35:48;98834.94;;;9.06;82.43
18275;BME280;19470;49.322;7.218;2023-03-05T07:38:14;98831.75;;;9.75;80.02
18275;BME280;19470;49.322;7.218;2023-03-05T07:40:41;98827.75;;;9.37;82.58
18275;BME280;19470;49.322;7.218;2023-03-05T07:43:07;98830.13;;;9.27;83.35
18275;BME280;19470;49.322;7.218;2023-03-05T07:45:38;98830.38;;;9.60;80.63
18275;BME280;19470;49.322;7.218;2023-03-05T07:48:07;98828.13;;;9.92;78.15
18275;BME280;19470;49.322;7.218;2023-03-05T07:50:33;98831.16;;;9.84;76.98
18275;BME280;19470;49.322;7.218;2023-03-05T07:53:00;98836.19;;;9.97;74.36
18275;BME280;19470;49.322;7.218;2023-03-05T07:55:27;98836.84;;;10.16;74.37
18275;BME280;19470;49.322;7.218;2023-03-05T07:57:54;98840.44;;;9.87;74.97
18275;BME280;19470;49.322;7.218;2023-03-05T08:00:20;98836.44;;;9.14;76.73
18275;BME280;19470;49.322;7.218;2023-03-05T08:02:47;98832.53;;;9.63;77.46
18275;BME280;19470;49.322;7.218;2023-03-05T08:05:16;98830.38;;;9.13;73.18
18275;BME280;19470;49.322;7.218;2023-03-05T08:07:42;98835.78;;;9.65;72.55
18275;BME280;19470;49.322;7.218;2023-03-05T08:10:10;98833.34;;;9.29;71.65
18275;BME280;19470;49.322;7.218;2023-03-05T08:12:36;98829.97;;;8.98;73.07
18275;BME280;19470;49.322;7.218;2023-03-05T08:15:03;98826.09;;;9.36;72.04
18275;BME280;19470;49.322;7.218;2023-03-05T08:17:30;98822.13;;;8.38;73.76
18275;BME280;19470;49.322;7.218;2023-03-05T08:19:56;98824.50;;;9.35;70.14
18275;BME280;19470;49.322;7.218;2023-03-05T08:22:25;98822.78;;;10.16;66.41
18275;BME280;19470;49.322;7.218;2023-03-05T08:24:52;98826.69;;;9.38;69.03
18275;BME280;19470;49.322;7.218;2023-03-05T08:27:18;98825.91;;;9.37;69.74
18275;BME280;19470;49.322;7.218;2023-03-05T08:29:45;98826.69;;;9.14;69.21
18275;BME280;19470;49.322;7.218;2023-03-05T08:32:11;98823.22;;;9.72;66.00
18275;BME280;19470;49.322;7.218;2023-03-05T08:34:38;98820.94;;;9.06;67.66
18275;BME280;19470;49.322;7.218;2023-03-05T08:37:04;98813.81;;;9.53;65.81
18275;BME280;19470;49.322;7.218;2023-03-05T08:39:34;98813.22;;;9.63;67.34
18275;BME280;19470;49.322;7.218;2023-03-05T08:42:01;98806.28;;;10.83;64.16
18275;BME280;19470;49.322;7.218;2023-03-05T08:44:28;98806.34;;;11.05;63.03
18275;BME280;19470;49.322;7.218;2023-03-05T08:46:55;98812.22;;;10.04;63.99
18275;BME280;19470;49.322;7.218;2023-03-05T08:49:21;98804.44;;;10.38;62.62
18275;BME280;19470;49.322;7.218;2023-03-05T08:51:48;98804.47;;;10.55;63.31
18275;BME280;19470;49.322;7.218;2023-03-05T08:54:14;98806.09;;;10.15;62.67
18275;BME280;19470;49.322;7.218;2023-03-05T08:56:42;98811.69;;;9.90;63.59
18275;BME280;19470;49.322;7.218;2023-03-05T08:59:10;98807.56;;;9.83;64.96
18275;BME280;19470;49.322;7.218;2023-03-05T09:01:36;98806.34;;;10.14;63.40
18275;BME280;19470;49.322;7.218;2023-03-05T09:04:03;98813.00;;;9.53;64.28
18275;BME280;19470;49.322;7.218;2023-03-05T09:06:29;98809.88;;;10.19;62.50
18275;BME280;19470;49.322;7.218;2023-03-05T09:08:56;98808.69;;;9.87;63.47
18275;BME280;19470;49.322;7.218;2023-03-05T09:11:22;98800.50;;;10.86;61.83
18275;BME280;19470;49.322;7.218;2023-03-05T09:13:50;98806.66;;;9.89;64.48
18275;BME280;19470;49.322;7.218;2023-03-05T09:16:17;98803.63;;;10.83;61.96
18275;BME280;19470;49.322;7.218;2023-03-05T09:18:44;98800.75;;;11.01;60.54
18275;BME280;19470;49.322;7.218;2023-03-05T09:21:13;98796.63;;;11.27;59.66
18275;BME280;19470;49.322;7.218;2023-03-05T09:23:40;98792.91;;;10.04;62.34
18275;BME280;19470;49.322;7.218;2023-03-05T09:26:09;98803.13;;;9.60;64.20
18275;BME280;19470;49.322;7.218;2023-03-05T09:28:37;98796.13;;;10.63;60.66
18275;BME280;19470;49.322;7.218;2023-03-05T09:31:06;98796.00;;;9.48;65.05
18275;BME280;19470;49.322;7.218;2023-03-05T09:33:33;98780.25;;;11.13;60.33
18275;BME280;19470;49.322;7.218;2023-03-05T09:36:01;98787.59;;;11.06;59.94
18275;BME280;19470;49.322;7.218;2023-03-05T09:38:28;98780.91;;;11.59;58.57
18275;BME280;19470;49.322;7.218;2023-03-05T09:40:59;98778.84;;;11.06;59.57
18275;BME280;19470;49.322;7.218;2023-03-05T09:43:38;98782.00;;;10.57;59.28
18275;BME280;19470;49.322;7.218;2023-03-05T09:46:22;98774.66;;;10.93;59.08
18275;BME280;19470;49.322;7.218;2023-03-05T09:48:59;98769.06;;;11.45;58.49
18275;BME280;19470;49.322;7.218;2023-03-05T09:51:34;98764.41;;;11.57;58.03
18275;BME280;19470;49.322;7.218;2023-03-05T09:54:05;98763.88;;;11.55;58.37
18275;BME280;19470;49.322;7.218;2023-03-05T09:56:38;98762.78;;;10.79;59.98
18275;BME280;19470;49.322;7.218;2023-03-05T09:59:16;98763.47;;;10.91;59.89
18275;BME280;19470;49.322;7.218;2023-03-05T10:01:47;98760.00;;;11.24;58.99
18275;BME280;19470;49.322;7.218;2023-03-05T10:04:17;98765.94;;;10.18;61.79
18275;BME280;19470;49.322;7.218;2023-03-05T10:06:49;98760.72;;;10.35;61.22
18275;BME280;19470;49.322;7.218;2023-03-05T10:09:38;98759.47;;;9.97;62.34
18275;BME280;19470;49.322;7.218;2023-03-05T10:12:13;98758.75;;;10.59;61.07
18275;BME280;19470;49.322;7.218;2023-03-05T10:14:41;98754.81;;;10.05;63.21
18275;BME280;19470;49.322;7.218;2023-03-05T10:17:46;98746.75;;;11.63;58.36
18275;BME280;19470;49.322;7.218;2023-03-05T10:20:33;98751.94;;;10.80;60.28
18275;BME280;19470;49.322;7.218;2023-03-05T10:23:25;98753.06;;;11.40;59.05
18275;BME280;19470;49.322;7.218;2023-03-05T10:26:03;98738.75;;;11.41;58.76
18275;BME280;19470;49.322;7.218;2023-03-05T10:28:34;98746.22;;;10.71;61.60
18275;BME280;19470;49.322;7.218;2023-03-05T10:31:19;98740.28;;;10.64;60.91
18275;BME280;19470;49.322;7.218;2023-03-05T10:34:02;98746.03;;;10.28;62.13
18275;BME280;19470;49.322;7.218;2023-03-05T10:36:52;98731.78;;;10.62;61.53
18275;BME280;19470;49.322;7.218;2023-03-05T10:39:48;98734.41;;;10.62;61.06
18275;BME280;19470;49.322;7.218;2023-03-05T10:42:26;98736.44;;;10.89;60.69
18275;BME280;19470;49.322;7.218;2023-03-05T10:44:55;98730.13;;;10.28;61.48
18275;BME280;19470;49.322;7.218;2023-03-05T10:47:25;98731.63;;;9.95;62.45
18275;BME280;19470;49.322;7.218;2023-03-05T10:49:56;98731.84;;;9.65;63.24
18275;BME280;19470;49.322;7.218;2023-03-05T10:52:27;98723.13;;;10.84;59.58
18275;BME280;19470;49.322;7.218;2023-03-05T10:54:54;98727.66;;;10.09;62.85
18275;BME280;19470;49.322;7.218;2023-03-05T10:57:22;98724.06;;;10.44;61.40
18275;BME280;19470;49.322;7.218;2023-03-05T10:59:51;98714.25;;;10.95;59.47
18275;BME280;19470;49.322;7.218;2023-03-05T11:02:19;98720.59;;;9.58;62.74
18275;BME280;19470;49.322;7.218;2023-03-05T11:04:46;98706.25;;;10.90;58.35
18275;BME280;19470;49.322;7.218;2023-03-05T11:10:16;98707.91;;;10.96;59.31
18275;BME280;19470;49.322;7.218;2023-03-05T11:12:44;98709.72;;;10.73;59.17
18275;BME280;19470;49.322;7.218;2023-03-05T11:15:25;98698.22;;;10.68;60.05
18275;BME280;19470;49.322;7.218;2023-03-05T11:18:19;98689.16;;;11.19;57.45
18275;BME280;19470;49.322;7.218;2023-03-05T11:20:48;98695.81;;;10.33;59.09
18275;BME280;19470;49.322;7.218;2023-03-05T11:23:16;98694.34;;;10.25;59.89
18275;BME280;19470;49.322;7.218;2023-03-05T11:25:59;98687.28;;;9.85;61.92
18275;BME280;19470;49.322;7.218;2023-03-05T11:28:29;98687.00;;;10.61;60.23
18275;BME280;19470;49.322;7.218;2023-03-05T11:30:59;98688.16;;;10.87;59.23
18275;BME280;19470;49.322;7.218;2023-03-05T11:33:26;98690.91;;;9.96;62.14
18275;BME280;19470;49.322;7.218;2023-03-05T11:36:09;98692.59;;;9.73;63.43
18275;BME280;19470;49.322;7.218;2023-03-05T11:38:44;98676.91;;;10.12;62.84
18275;BME280;19470;49.322;7.218;2023-03-05T11:41:14;98681.41;;;11.35;58.82
18275;BME280;19470;49.322;7.218;2023-03-05T11:43:42;98676.00;;;10.52;60.67
18275;BME280;19470;49.322;7.218;2023-03-05T11:46:11;98676.84;;;11.52;58.21
18275;BME280;19470;49.322;7.218;2023-03-05T11:48:38;98667.81;;;11.97;57.23
18275;BME280;19470;49.322;7.218;2023-03-05T11:51:12;98663.91;;;10.56;61.13
18275;BME280;19470;49.322;7.218;2023-03-05T11:53:41;98659.31;;;10.35;62.33
18275;BME280;19470;49.322;7.218;2023-03-05T11:56:42;98658.41;;;11.18;59.66
18275;BME280;19470;49.322;7.218;2023-03-05T11:59:13;98653.00;;;10.36;62.26
18275;BME280;19470;49.322;7.218;2023-03-05T12:01:45;98647.47;;;10.93;60.78
18275;BME280;19470;49.322;7.218;2023-03-05T12:04:13;98647.44;;;9.92;63.19
18275;BME280;19470;49.322;7.218;2023-03-05T12:06:43;98644.25;;;9.61;64.33
18275;BME280;19470;49.322;7.218;2023-03-05T12:09:14;98635.41;;;9.84;64.05
18275;BME280;19470;49.322;7.218;2023-03-05T12:11:47;98638.78;;;8.99;65.15
18275;BME280;19470;49.322;7.218;2023-03-05T12:14:21;98633.25;;;10.43;62.50
18275;BME280;19470;49.322;7.218;2023-03-05T12:16:51;98629.88;;;10.31;62.96
18275;BME280;19470;49.322;7.218;2023-03-05T12:19:35;98620.44;;;11.13;59.55
18275;BME280;19470;49.322;7.218;2023-03-05T12:22:15;98621.28;;;11.62;57.98
18275;BME280;19470;49.322;7.218;2023-03-05T12:24:41;98610.69;;;11.40;59.16
18275;BME280;19470;49.322;7.218;2023-03-05T12:27:11;98616.22;;;10.39;59.01
18275;BME280;19470;49.322;7.218;2023-03-05T12:29:56;98605.94;;;11.91;57.30
18275;BME280;19470;49.322;7.218;2023-03-05T12:32:58;98608.41;;;11.49;58.06
18275;BME280;19470;49.322;7.218;2023-03-05T12:35:36;98603.06;;;11.44;58.05
18275;BME280;19470;49.322;7.218;2023-03-05T12:38:29;98593.00;;;11.73;56.88
18275;BME280;19470;49.322;7.218;2023-03-05T12:44:25;98591.97;;;9.97;61.47
18275;BME280;19470;49.322;7.218;2023-03-05T12:47:14;98587.97;;;10.11;60.47
18275;BME280;19470;49.322;7.218;2023-03-05T12:49:43;98583.03;;;11.09;58.39
18275;BME280;19470;49.322;7.218;2023-03-05T12:52:20;98580.75;;;10.57;59.67
18275;BME280;19470;49.322;7.218;2023-03-05T12:57:36;98575.81;;;11.81;56.31
18275;BME280;19470;49.322;7.218;2023-03-05T13:00:08;98571.28;;;9.60;62.38
18275;BME280;19470;49.322;7.218;2023-03-05T13:02:39;98569.63;;;9.42;62.74
18275;BME280;19470;49.322;7.218;2023-03-05T13:05:16;98564.66;;;9.91;62.67
18275;BME280;19470;49.322;7.218;2023-03-05T13:07:45;98560.69;;;11.05;57.83
18275;BME280;19470;49.322;7.218;2023-03-05T13:10:21;98554.25;;;11.72;57.04
18275;BME280;19470;49.322;7.218;2023-03-05T13:12:49;98547.28;;;11.66;56.06
18275;BME280;19470;49.322;7.218;2023-03-05T13:15:19;98543.44;;;11.51;56.33
18275;BME280;19470;49.322;7.218;2023-03-05T13:17:51;98547.91;;;11.46;56.75
18275;BME280;19470;49.322;7.218;2023-03-05T13:20:26;98542.75;;;11.61;55.25
18275;BME280;19470;49.322;7.218;2023-03-05T13:23:19;98534.66;;;10.19;58.97
18275;BME280;19470;49.322;7.218;2023-03-05T13:25:59;98539.56;;;10.66;58.74
18275;BME280;19470;49.322;7.218;2023-03-05T13:28:26;98527.53;;;11.51;56.21